Time;durP1;ratioP1;P1;durP2;ratioP2;P2;SDS_P1;SDS_P2;PMS_P1;PMS_P2;Temp;Humidity;BMP_temperature;BMP_pressure;BME280_temperature;BME280_humidity;BME280_pressure;Samples;Min_cycle;Max_cycle;Signal;HPM_P1;HPM_P2
2023/01/03 00:01:39;;;;;;;;;;;;;;;5.80;100.00;102524.66;5083833;28;19923;-60
2023/01/03 00:04:04;;;;;;;;;;;;;;;5.77;100.00;102514.28;5078165;28;19916;-61
2023/01/03 00:06:31;;;;;;;;;;;;;;;5.75;100.00;102516.16;5086898;28;19957;-61
2023/01/03 00:08:58;;;;;;;;;;;;;;;5.72;100.00;102515.53;5084212;28;19956;-58
2023/01/03 00:14:18;;;;;;;;;;;;;;;5.60;100.00;102506.63;5055937;28;20408;-60
2023/01/03 00:16:43;;;;;;;;;;;;;;;5.55;100.00;102508.69;5085375;28;19916;-63
2023/01/03 00:19:10;;;;;;;;;;;;;;;5.53;100.00;102519.34;5075667;28;19947;-59
2023/01/03 00:21:35;;;;;;;;;;;;;;;5.50;100.00;102522.19;5096095;28;20347;-60
2023/01/03 00:24:01;;;;;;;;;;;;;;;5.49;100.00;102523.13;5092283;27;19940;-60
2023/01/03 00:26:26;;;;;;;;;;;;;;;5.45;100.00;102518.94;5089430;28;19912;-60
2023/01/03 00:28:51;;;;;;;;;;;;;;;5.43;100.00;102514.72;5085671;28;19916;-60
2023/01/03 00:31:17;;;;;;;;;;;;;;;5.39;100.00;102516.72;5088419;28;20179;-60
2023/01/03 00:33:42;;;;;;;;;;;;;;;5.37;100.00;102523.00;5080383;28;20339;-59
2023/01/03 00:36:08;;;;;;;;;;;;;;;5.35;100.00;102520.47;5085385;28;19935;-59
2023/01/03 00:38:34;;;;;;;;;;;;;;;5.29;100.00;102513.81;5079882;28;19970;-59
2023/01/03 00:41:17;;;;;;;;;;;;;;;5.25;100.00;102516.72;5077645;28;19916;-60
2023/01/03 00:43:44;;;;;;;;;;;;;;;5.18;100.00;102524.13;5075322;28;19970;-58
2023/01/03 00:46:09;;;;;;;;;;;;;;;5.09;100.00;102519.44;5083899;28;19961;-64
2023/01/03 00:48:35;;;;;;;;;;;;;;;5.04;100.00;102523.31;5078246;28;19978;-59
2023/01/03 00:51:08;;;;;;;;;;;;;;;4.98;100.00;102516.63;5082548;28;19923;-60
2023/01/03 00:53:34;;;;;;;;;;;;;;;4.95;100.00;102519.47;5078341;28;20382;-58
2023/01/03 00:56:01;;;;;;;;;;;;;;;4.94;100.00;102531.78;5085572;28;19920;-59
2023/01/03 00:58:28;;;;;;;;;;;;;;;4.92;100.00;102525.75;5076143;28;19985;-60
2023/01/03 01:00:53;;;;;;;;;;;;;;;4.90;100.00;102529.41;5080672;28;19938;-60
2023/01/03 01:03:18;;;;;;;;;;;;;;;4.84;100.00;102533.25;5083957;28;19916;-61
2023/01/03 01:05:44;;;;;;;;;;;;;;;4.78;100.00;102533.63;5081919;28;19922;-60
2023/01/03 01:08:09;;;;;;;;;;;;;;;4.79;100.00;102535.31;5080959;28;19937;-61
2023/01/03 01:10:34;;;;;;;;;;;;;;;4.79;100.00;102537.94;5079874;28;19912;-59
2023/01/03 01:12:59;;;;;;;;;;;;;;;4.80;100.00;102539.63;5072386;28;19966;-58
2023/01/03 01:15:24;;;;;;;;;;;;;;;4.82;100.00;102537.75;5082703;28;19936;-60
2023/01/03 01:17:49;;;;;;;;;;;;;;;4.84;100.00;102540.28;5082259;28;19940;-60
2023/01/03 01:20:16;;;;;;;;;;;;;;;4.84;100.00;102543.78;5081692;28;19938;-61
2023/01/03 01:22:41;;;;;;;;;;;;;;;4.84;100.00;102545.56;5077689;28;19952;-60
2023/01/03 01:25:06;;;;;;;;;;;;;;;4.82;100.00;102539.53;5089781;28;19959;-60
2023/01/03 01:27:31;;;;;;;;;;;;;;;4.78;100.00;102546.78;5075498;28;20594;-60
2023/01/03 01:29:57;;;;;;;;;;;;;;;4.76;100.00;102550.44;5082029;28;20028;-61
2023/01/03 01:32:22;;;;;;;;;;;;;;;4.70;100.00;102562.19;5081638;28;19912;-58
2023/01/03 01:34:47;;;;;;;;;;;;;;;4.63;100.00;102555.59;5085176;28;19927;-62
2023/01/03 01:37:12;;;;;;;;;;;;;;;4.56;100.00;102562.13;5093055;28;19981;-60
2023/01/03 01:39:37;;;;;;;;;;;;;;;4.48;100.00;102557.31;5086740;28;19916;-59
2023/01/03 01:44:51;;;;;;;;;;;;;;;4.40;100.00;102567.44;5079060;28;19927;-60
2023/01/03 01:47:25;;;;;;;;;;;;;;;4.37;100.00;102565.00;5071552;28;19916;-60
2023/01/03 01:49:54;;;;;;;;;;;;;;;4.34;100.00;102570.44;5082951;28;20501;-56
2023/01/03 01:52:20;;;;;;;;;;;;;;;4.31;100.00;102576.69;5087118;28;19955;-60
2023/01/03 01:54:46;;;;;;;;;;;;;;;4.26;100.00;102581.38;5088879;28;20653;-59
2023/01/03 01:57:14;;;;;;;;;;;;;;;4.20;100.00;102586.97;5092071;28;20291;-58
2023/01/03 01:59:39;;;;;;;;;;;;;;;4.16;100.00;102587.25;5086690;28;19943;-60
2023/01/03 02:02:04;;;;;;;;;;;;;;;4.11;100.00;102584.88;5090093;28;20400;-61
2023/01/03 02:04:32;;;;;;;;;;;;;;;4.08;100.00;102592.94;5086406;28;19915;-62
2023/01/03 02:06:58;;;;;;;;;;;;;;;4.03;100.00;102589.69;5089040;28;19927;-60
2023/01/03 02:09:23;;;;;;;;;;;;;;;3.98;100.00;102594.34;5088257;28;19923;-59
2023/01/03 02:15:03;;;;;;;;;;;;;;;3.92;100.00;102594.69;5056870;28;19916;-61
2023/01/03 02:17:39;;;;;;;;;;;;;;;3.91;100.00;102585.13;5081067;28;19963;-61
2023/01/03 02:20:12;;;;;;;;;;;;;;;3.94;100.00;102584.94;5086994;28;19912;-60
2023/01/03 02:22:56;;;;;;;;;;;;;;;3.97;100.00;102588.25;5083176;28;19920;-59
2023/01/03 02:25:52;;;;;;;;;;;;;;;4.02;100.00;102586.22;5077226;28;19961;-61
2023/01/03 02:28:26;;;;;;;;;;;;;;;4.05;100.00;102585.22;5082510;28;20018;-59
2023/01/03 02:31:13;;;;;;;;;;;;;;;4.07;100.00;102583.34;5085237;28;20382;-58
2023/01/03 02:33:42;;;;;;;;;;;;;;;4.04;100.00;102586.13;5080932;28;19944;-60
2023/01/03 02:36:26;;;;;;;;;;;;;;;4.02;100.00;102580.97;5085901;28;19920;-60
2023/01/03 02:39:00;;;;;;;;;;;;;;;4.02;100.00;102580.09;5086476;28;19919;-57
2023/01/03 02:41:37;;;;;;;;;;;;;;;4.02;100.00;102582.72;5084233;28;20387;-59
2023/01/03 02:44:20;;;;;;;;;;;;;;;3.97;100.00;102582.16;5080020;28;20011;-61
2023/01/03 02:46:59;;;;;;;;;;;;;;;3.93;100.00;102576.22;5082328;28;19920;-58
2023/01/03 02:49:36;;;;;;;;;;;;;;;3.88;100.00;102582.66;5084833;28;19967;-58
2023/01/03 02:52:04;;;;;;;;;;;;;;;3.81;100.00;102582.16;5084854;28;19920;-57
2023/01/03 02:54:34;;;;;;;;;;;;;;;3.79;100.00;102589.28;5084222;28;20093;-60
2023/01/03 02:57:10;;;;;;;;;;;;;;;3.75;100.00;102582.47;5088117;28;19926;-61
2023/01/03 02:59:47;;;;;;;;;;;;;;;3.71;100.00;102580.94;5087565;28;20303;-60
2023/01/03 03:02:14;;;;;;;;;;;;;;;3.68;100.00;102581.97;5082240;28;19939;-58
2023/01/03 03:04:41;;;;;;;;;;;;;;;3.66;100.00;102582.97;5103460;28;19924;-62
2023/01/03 03:07:08;;;;;;;;;;;;;;;3.58;100.00;102577.31;5090468;28;19912;-59
2023/01/03 03:13:11;;;;;;;;;;;;;;;3.50;100.00;102580.34;5077381;28;19974;-60
2023/01/03 03:15:04;;;;;;;;;;;;;;;3.43;100.00;102584.22;5076629;28;19947;-60
2023/01/03 03:17:29;;;;;;;;;;;;;;;3.39;100.00;102586.16;5079876;28;20560;-60
2023/01/03 03:25:32;;;;;;;;;;;;;;;3.30;100.00;102588.44;5083403;28;19939;-61
2023/01/03 03:30:49;;;;;;;;;;;;;;;3.21;100.00;102581.88;5077171;28;19923;-60
2023/01/03 03:33:16;;;;;;;;;;;;;;;3.16;100.00;102583.88;5086599;28;19970;-60
2023/01/03 03:35:55;;;;;;;;;;;;;;;3.14;100.00;102577.88;5081217;28;19916;-59
2023/01/03 03:38:24;;;;;;;;;;;;;;;3.13;100.00;102584.03;5083628;28;19924;-60
2023/01/03 03:46:43;;;;;;;;;;;;;;;3.11;100.00;102580.66;5074037;28;20581;-59
2023/01/03 03:51:57;;;;;;;;;;;;;;;3.10;100.00;102578.94;5076513;28;19923;-59
2023/01/03 03:54:24;;;;;;;;;;;;;;;3.12;100.00;102571.84;5080015;28;19923;-59
2023/01/03 03:56:53;;;;;;;;;;;;;;;3.12;100.00;102582.34;5084119;28;19937;-59
2023/01/03 03:59:20;;;;;;;;;;;;;;;3.11;100.00;102580.66;5083645;28;19960;-60
2023/01/03 04:01:46;;;;;;;;;;;;;;;3.11;100.00;102581.50;5083508;28;20287;-59
2023/01/03 04:04:17;;;;;;;;;;;;;;;3.11;100.00;102584.13;5096953;28;19912;-60
2023/01/03 04:06:46;;;;;;;;;;;;;;;3.14;100.00;102585.75;5094371;28;19912;-59
2023/01/03 04:09:11;;;;;;;;;;;;;;;3.15;100.00;102592.69;5091838;28;19916;-60
2023/01/03 04:11:37;;;;;;;;;;;;;;;3.17;100.00;102589.97;5079071;28;20054;-63
2023/01/03 04:14:02;;;;;;;;;;;;;;;3.19;100.00;102593.41;5078007;28;19982;-60
2023/01/03 04:16:27;;;;;;;;;;;;;;;3.20;100.00;102595.09;5080060;28;20316;-60
2023/01/03 04:18:52;;;;;;;;;;;;;;;3.19;100.00;102585.53;5075412;28;19938;-57
2023/01/03 04:21:17;;;;;;;;;;;;;;;3.19;100.00;102580.28;5094094;27;19920;-60
2023/01/03 04:23:43;;;;;;;;;;;;;;;3.19;100.00;102586.38;5074831;28;19974;-60
2023/01/03 04:26:08;;;;;;;;;;;;;;;3.20;100.00;102593.31;5085978;28;19965;-60
2023/01/03 04:28:33;;;;;;;;;;;;;;;3.22;100.00;102588.84;5081629;28;19935;-61
2023/01/03 04:30:58;;;;;;;;;;;;;;;3.25;100.00;102593.91;5083274;28;20441;-59
2023/01/03 04:33:23;;;;;;;;;;;;;;;3.29;100.00;102594.59;5077859;28;19916;-60
2023/01/03 04:35:48;;;;;;;;;;;;;;;3.32;100.00;102597.06;5079665;28;20374;-59
2023/01/03 04:38:14;;;;;;;;;;;;;;;3.32;100.00;102595.28;5077198;28;19928;-60
2023/01/03 04:40:39;;;;;;;;;;;;;;;3.35;100.00;102595.13;5082171;28;19916;-58
2023/01/03 04:45:48;;;;;;;;;;;;;;;3.42;100.00;102590.38;5087548;28;19943;-57
2023/01/03 04:48:14;;;;;;;;;;;;;;;3.45;100.00;102592.84;5075127;28;20621;-59
2023/01/03 04:50:39;;;;;;;;;;;;;;;3.48;100.00;102597.13;5077548;28;19931;-57
2023/01/03 04:53:04;;;;;;;;;;;;;;;3.49;100.00;102594.41;5079952;28;20360;-60
2023/01/03 04:55:30;;;;;;;;;;;;;;;3.52;100.00;102594.25;5090383;28;20423;-59
2023/01/03 04:57:55;;;;;;;;;;;;;;;3.54;100.00;102591.53;5081402;28;19921;-60
2023/01/03 05:00:20;;;;;;;;;;;;;;;3.56;100.00;102589.66;5079760;28;19923;-61
2023/01/03 05:02:45;;;;;;;;;;;;;;;3.57;100.00;102588.75;5080648;28;19999;-58
2023/01/03 05:05:10;;;;;;;;;;;;;;;3.58;100.00;102588.66;5075544;28;19955;-58
2023/01/03 05:07:35;;;;;;;;;;;;;;;3.61;100.00;102587.63;5082351;28;19917;-60
2023/01/03 05:10:01;;;;;;;;;;;;;;;3.61;100.00;102582.38;5083189;28;19931;-60
2023/01/03 05:12:26;;;;;;;;;;;;;;;3.61;100.00;102582.38;5082987;28;19913;-59
2023/01/03 05:14:51;;;;;;;;;;;;;;;3.62;100.00;102586.72;5085837;28;20348;-59
2023/01/03 05:17:17;;;;;;;;;;;;;;;3.62;100.00;102584.09;5072998;28;19916;-59
2023/01/03 05:27:55;;;;;;;;;;;;;;;3.72;100.00;102572.13;5081814;28;20299;-59
2023/01/03 05:30:20;;;;;;;;;;;;;;;3.73;100.00;102589.59;5076916;28;19920;-60
2023/01/03 05:32:45;;;;;;;;;;;;;;;3.76;100.00;102585.94;5083642;28;19916;-59
2023/01/03 05:35:10;;;;;;;;;;;;;;;3.78;100.00;102582.34;5090795;28;19938;-60
2023/01/03 05:37:35;;;;;;;;;;;;;;;3.80;100.00;102575.22;5089252;28;20010;-60
2023/01/03 05:40:01;;;;;;;;;;;;;;;3.83;100.00;102575.03;5081528;28;19957;-62
2023/01/03 05:42:26;;;;;;;;;;;;;;;3.87;100.00;102566.06;5083428;28;20002;-58
2023/01/03 05:44:51;;;;;;;;;;;;;;;3.89;100.00;102569.44;5087222;28;19924;-60
2023/01/03 05:47:16;;;;;;;;;;;;;;;3.89;100.00;102572.06;5087789;28;19947;-59
2023/01/03 05:49:41;;;;;;;;;;;;;;;3.89;100.00;102569.44;5082188;28;19962;-60
2023/01/03 05:52:07;;;;;;;;;;;;;;;3.85;100.00;102564.44;5073166;28;20497;-58
2023/01/03 05:54:32;;;;;;;;;;;;;;;3.83;100.00;102559.28;5091347;28;19969;-59
2023/01/03 05:56:57;;;;;;;;;;;;;;;3.82;100.00;102560.22;5082665;28;20525;-58
2023/01/03 05:59:22;;;;;;;;;;;;;;;3.83;100.00;102564.53;5072138;28;19995;-58
2023/01/03 06:01:48;;;;;;;;;;;;;;;3.82;100.00;102573.34;5083727;28;19919;-60
2023/01/03 06:04:13;;;;;;;;;;;;;;;3.80;100.00;102580.47;5085986;28;19919;-59
2023/01/03 06:06:38;;;;;;;;;;;;;;;3.80;100.00;102572.59;5083906;28;20296;-58
2023/01/03 06:09:04;;;;;;;;;;;;;;;3.83;100.00;102568.94;5075594;28;19960;-60
2023/01/03 06:11:29;;;;;;;;;;;;;;;3.85;100.00;102560.03;5081992;28;20307;-57
2023/01/03 06:13:55;;;;;;;;;;;;;;;3.89;100.00;102563.34;5089560;28;19958;-60
2023/01/03 06:19:05;;;;;;;;;;;;;;;3.91;100.00;102559.69;5073214;28;20643;-60
2023/01/03 06:21:30;;;;;;;;;;;;;;;3.93;100.00;102552.56;5074406;28;20455;-58
2023/01/03 06:23:55;;;;;;;;;;;;;;;3.95;100.00;102553.31;5071252;28;19994;-57
2023/01/03 06:26:22;;;;;;;;;;;;;;;3.96;100.00;102544.50;5075146;28;20048;-60
2023/01/03 06:28:47;;;;;;;;;;;;;;;3.98;100.00;102554.94;5081618;28;19926;-60
2023/01/03 06:31:13;;;;;;;;;;;;;;;3.96;100.00;102555.03;5073907;28;20003;-63
2023/01/03 06:33:38;;;;;;;;;;;;;;;3.97;100.00;102555.88;5083950;28;20755;-61
2023/01/03 06:36:05;;;;;;;;;;;;;;;3.96;100.00;102547.13;5084094;28;19930;-58
2023/01/03 06:38:30;;;;;;;;;;;;;;;3.96;100.00;102547.13;5091879;28;19923;-58
2023/01/03 06:40:55;;;;;;;;;;;;;;;3.98;100.00;102547.03;5081266;28;19916;-58
2023/01/03 06:43:20;;;;;;;;;;;;;;;3.97;100.00;102534.84;5076682;28;19932;-59
2023/01/03 06:54:02;;;;;;;;;;;;;;;3.98;100.00;102534.75;5084008;28;19939;-58
2023/01/03 06:56:27;;;;;;;;;;;;;;;3.97;100.00;102530.44;5074866;28;20439;-60
2023/01/03 06:58:52;;;;;;;;;;;;;;;3.97;100.00;102527.78;5084295;28;19916;-58
2023/01/03 07:01:18;;;;;;;;;;;;;;;3.97;100.00;102533.06;5086816;28;19978;-59
2023/01/03 07:03:43;;;;;;;;;;;;;;;3.97;100.00;102530.44;5078684;28;19941;-63
2023/01/03 07:06:08;;;;;;;;;;;;;;;3.96;100.00;102536.63;5079722;28;19924;-60
2023/01/03 07:08:34;;;;;;;;;;;;;;;3.96;100.00;102539.25;5081286;28;20046;-59
2023/01/03 07:11:00;;;;;;;;;;;;;;;3.96;100.00;102535.78;5088392;28;19961;-60
2023/01/03 07:16:12;;;;;;;;;;;;;;;3.94;100.00;102532.38;5087192;28;20071;-60
2023/01/03 07:18:37;;;;;;;;;;;;;;;3.95;100.00;102542.81;5075539;28;19917;-60
2023/01/03 07:21:04;;;;;;;;;;;;;;;3.93;100.00;102544.69;5094776;28;19934;-57
2023/01/03 07:23:29;;;;;;;;;;;;;;;3.92;100.00;102553.50;5079048;28;19943;-61
2023/01/03 07:25:54;;;;;;;;;;;;;;;3.89;100.00;102566.81;5077776;28;19924;-59
2023/01/03 07:28:20;;;;;;;;;;;;;;;3.87;100.00;102571.31;5077578;28;19949;-60
2023/01/03 07:30:45;;;;;;;;;;;;;;;3.88;100.00;102559.88;5074004;28;19940;-59
2023/01/03 07:33:12;;;;;;;;;;;;;;;3.90;100.00;102563.25;5077005;28;20344;-56
2023/01/03 07:35:37;;;;;;;;;;;;;;;3.93;100.00;102562.22;5074157;28;19999;-59
2023/01/03 07:38:03;;;;;;;;;;;;;;;3.96;100.00;102562.06;5082232;28;20007;-60
2023/01/03 07:40:28;;;;;;;;;;;;;;;3.99;100.00;102560.09;5086688;28;19916;-57
2023/01/03 07:45:41;;;;;;;;;;;;;;;4.06;100.00;102571.16;5085129;28;20037;-63
2023/01/03 07:48:06;;;;;;;;;;;;;;;4.09;100.00;102575.38;5079327;28;19939;-58
2023/01/03 07:50:31;;;;;;;;;;;;;;;4.13;100.00;102569.00;5081110;28;19920;-58
2023/01/03 07:52:57;;;;;;;;;;;;;;;4.14;100.00;102574.19;5077861;28;19987;-60
2023/01/03 07:55:22;;;;;;;;;;;;;;;4.18;100.00;102580.13;5078706;28;20375;-59
2023/01/03 07:57:47;;;;;;;;;;;;;;;4.21;100.00;102586.03;5075914;28;19965;-56
2023/01/03 08:00:12;;;;;;;;;;;;;;;4.19;100.00;102576.53;5077337;28;20276;-63
2023/01/03 08:02:38;;;;;;;;;;;;;;;4.25;100.00;102584.09;5076628;28;19924;-58
2023/01/03 08:05:03;;;;;;;;;;;;;;;4.29;100.00;102590.84;5088186;28;19959;-60
2023/01/03 08:07:28;;;;;;;;;;;;;;;4.34;100.00;102586.22;5080657;28;19965;-57
2023/01/03 08:15:21;;;;;;;;;;;;;;;4.53;100.00;102599.97;5080020;28;19933;-61
2023/01/03 08:17:46;;;;;;;;;;;;;;;4.59;100.00;102610.16;5076593;28;19916;-61
2023/01/03 08:20:12;;;;;;;;;;;;;;;4.68;100.00;102605.31;5084589;28;19966;-60
2023/01/03 08:22:37;;;;;;;;;;;;;;;4.74;100.00;102608.44;5083336;28;19916;-61
2023/01/03 08:25:02;;;;;;;;;;;;;;;4.79;100.00;102609.00;5073657;28;19974;-59
2023/01/03 08:27:27;;;;;;;;;;;;;;;4.84;100.00;102608.72;5077483;28;19916;-58
2023/01/03 08:29:52;;;;;;;;;;;;;;;4.89;100.00;102612.78;5084499;28;20276;-60
2023/01/03 08:32:18;;;;;;;;;;;;;;;4.92;100.00;102614.41;5083753;28;19946;-60
2023/01/03 08:34:47;;;;;;;;;;;;;;;4.96;100.00;102613.28;5080195;28;19915;-63
2023/01/03 08:37:13;;;;;;;;;;;;;;;4.99;100.00;102613.09;5078128;28;19922;-60
2023/01/03 08:39:47;;;;;;;;;;;;;;;5.03;100.00;102617.25;5080610;28;19927;-58
2023/01/03 08:42:14;;;;;;;;;;;;;;;5.06;100.00;102614.44;5075293;28;19958;-58
2023/01/03 08:44:40;;;;;;;;;;;;;;;5.08;100.00;102614.34;5090983;28;19915;-59
2023/01/03 08:47:07;;;;;;;;;;;;;;;5.12;100.00;102610.59;5088502;28;19916;-57
2023/01/03 08:49:33;;;;;;;;;;;;;;;5.14;100.00;102620.06;5076001;28;19924;-57
2023/01/03 08:51:58;;;;;;;;;;;;;;;5.18;100.00;102626.84;5089892;28;20298;-59
2023/01/03 08:54:23;;;;;;;;;;;;;;;5.21;100.00;102620.59;5075843;28;20535;-60
2023/01/03 08:56:48;;;;;;;;;;;;;;;5.22;100.00;102617.00;5083739;28;19920;-59
2023/01/03 08:59:13;;;;;;;;;;;;;;;5.24;100.00;102615.97;5090125;28;20310;-57
2023/01/03 09:01:39;;;;;;;;;;;;;;;5.28;100.00;102621.91;5080489;28;19923;-58
2023/01/03 09:04:04;;;;;;;;;;;;;;;5.32;100.00;102622.56;5071109;28;19958;-61
2023/01/03 09:06:29;;;;;;;;;;;;;;;5.35;100.00;102625.00;5087103;28;20380;-59
2023/01/03 09:08:55;;;;;;;;;;;;;;;5.39;100.00;102615.97;5082662;28;20053;-60
2023/01/03 09:11:20;;;;;;;;;;;;;;;5.40;100.00;102618.50;5085087;28;20359;-57
2023/01/03 09:13:45;;;;;;;;;;;;;;;5.45;100.00;102623.50;5083388;28;20528;-58
2023/01/03 09:16:11;;;;;;;;;;;;;;;5.49;100.00;102627.63;5086317;28;20322;-61
2023/01/03 09:18:37;;;;;;;;;;;;;;;5.53;100.00;102631.81;5078019;28;19961;-61
2023/01/03 09:21:03;;;;;;;;;;;;;;;5.56;100.00;102631.63;5080337;28;19919;-60
2023/01/03 09:23:29;;;;;;;;;;;;;;;5.59;100.00;102629.63;5075045;28;19917;-60
2023/01/03 09:25:54;;;;;;;;;;;;;;;5.64;100.00;102626.72;5082230;28;19922;-59
2023/01/03 09:28:19;;;;;;;;;;;;;;;5.69;100.00;102629.06;5080791;28;19916;-57
2023/01/03 09:30:44;;;;;;;;;;;;;;;5.72;100.00;102626.22;5069512;28;19924;-56
2023/01/03 09:33:10;;;;;;;;;;;;;;;5.74;100.00;102630.47;5081355;28;19998;-58
2023/01/03 09:35:38;;;;;;;;;;;;;;;5.78;100.00;102626.72;5078940;28;19977;-60
2023/01/03 09:38:03;;;;;;;;;;;;;;;5.81;100.00;102629.16;5084709;28;19959;-61
2023/01/03 09:40:30;;;;;;;;;;;;;;;5.86;100.00;102624.44;5079105;28;19967;-57
2023/01/03 09:43:12;;;;;;;;;;;;;;;5.88;100.00;102621.69;5077114;28;19960;-62
2023/01/03 09:45:38;;;;;;;;;;;;;;;5.90;100.00;102625.13;5082043;28;19916;-60
2023/01/03 09:48:04;;;;;;;;;;;;;;;5.92;100.00;102635.56;5081390;28;19923;-61
2023/01/03 09:50:33;;;;;;;;;;;;;;;5.94;100.00;102631.03;5077946;28;19921;-60
2023/01/03 10:04:26;;;;;;;;;;;;;;;6.06;100.00;102625.84;5076834;28;19923;-60
2023/01/03 10:07:03;;;;;;;;;;;;;;;6.10;100.00;102619.44;5071877;28;19916;-60
2023/01/03 10:09:34;;;;;;;;;;;;;;;6.16;100.00;102618.19;5080002;28;20011;-59
2023/01/03 10:12:38;;;;;;;;;;;;;;;6.22;100.00;102612.53;5081892;28;19923;-58
2023/01/03 10:15:09;;;;;;;;;;;;;;;6.28;100.00;102606.84;5015257;28;19925;-60
2023/01/03 10:17:46;;;;;;;;;;;;;;;6.34;100.00;102613.50;5022464;28;20020;-59
2023/01/03 10:20:38;;;;;;;;;;;;;;;6.38;100.00;102618.50;5054417;28;19930;-63
2023/01/03 10:23:04;;;;;;;;;;;;;;;6.42;100.00;102629.72;5088041;28;19950;-60
2023/01/03 10:25:29;;;;;;;;;;;;;;;6.45;100.00;102622.44;5080267;28;19951;-58
2023/01/03 10:28:01;;;;;;;;;;;;;;;6.52;100.00;102626.38;5087759;28;20307;-64
2023/01/03 10:30:33;;;;;;;;;;;;;;;6.58;100.00;102633.03;5078880;28;19929;-60
2023/01/03 10:33:22;;;;;;;;;;;;;;;6.60;100.00;102619.72;5077388;28;19965;-60
2023/01/03 10:35:47;;;;;;;;;;;;;;;6.63;100.00;102620.38;5084195;28;20027;-59
2023/01/03 10:38:14;;;;;;;;;;;;;;;6.65;100.00;102604.44;5079557;28;20435;-64
2023/01/03 10:40:58;;;;;;;;;;;;;;;6.69;100.00;102608.59;5076327;28;19924;-60
2023/01/03 10:43:42;;;;;;;;;;;;;;;6.73;100.00;102610.91;5088395;28;20037;-56
2023/01/03 10:46:29;;;;;;;;;;;;;;;6.75;100.00;102608.16;5086980;28;19949;-57
2023/01/03 10:48:55;;;;;;;;;;;;;;;6.77;100.00;102606.25;5084474;28;19929;-58
2023/01/03 10:51:39;;;;;;;;;;;;;;;6.79;100.00;102612.28;5086985;28;19920;-58
2023/01/03 10:54:30;;;;;;;;;;;;;;;6.80;100.00;102609.53;5084822;28;19916;-60
2023/01/03 10:56:55;;;;;;;;;;;;;;;6.82;100.00;102618.22;5053327;28;19924;-63
2023/01/03 10:59:25;;;;;;;;;;;;;;;6.85;100.00;102617.16;5081298;28;19916;-57
2023/01/03 11:01:57;;;;;;;;;;;;;;;6.84;100.00;102618.09;5082097;28;19970;-58
2023/01/03 11:04:23;;;;;;;;;;;;;;;6.83;100.00;102619.91;5075216;28;19920;-59
2023/01/03 11:07:02;;;;;;;;;;;;;;;6.84;100.00;102612.81;5081212;28;19926;-58
2023/01/03 11:09:32;;;;;;;;;;;;;;;6.88;100.00;102613.47;5088606;28;19925;-59
2023/01/03 11:12:10;;;;;;;;;;;;;;;6.91;100.00;102621.16;5078598;28;19977;-60
2023/01/03 11:14:35;;;;;;;;;;;;;;;6.94;100.00;102621.84;5083261;28;20316;-59
2023/01/03 11:17:02;;;;;;;;;;;;;;;6.98;100.00;102611.91;5079310;28;19921;-59
2023/01/03 11:19:29;;;;;;;;;;;;;;;6.99;100.00;102600.41;5073903;28;19927;-60
2023/01/03 11:22:02;;;;;;;;;;;;;;;7.02;100.00;102616.03;5073998;28;19942;-60
2023/01/03 11:24:27;;;;;;;;;;;;;;;7.04;100.00;102608.84;5077407;28;19977;-63
2023/01/03 11:27:11;;;;;;;;;;;;;;;7.03;100.00;102613.28;5080120;28;19916;-58
2023/01/03 11:29:45;;;;;;;;;;;;;;;7.04;100.00;102614.13;5079337;28;19934;-61
2023/01/03 11:32:16;;;;;;;;;;;;;;;7.04;100.00;102606.22;5075323;28;19919;-60
2023/01/03 11:35:03;;;;;;;;;;;;;;;7.04;100.00;102601.78;5080154;28;19917;-62
2023/01/03 11:37:31;;;;;;;;;;;;;;;7.02;100.00;102603.66;5078081;28;20430;-62
2023/01/03 11:39:59;;;;;;;;;;;;;;;7.02;100.00;102597.53;5082481;28;20387;-61
2023/01/03 11:42:33;;;;;;;;;;;;;;;7.02;100.00;102600.19;5089896;28;19919;-61
2023/01/03 11:45:10;;;;;;;;;;;;;;;7.02;100.00;102608.09;5089802;28;20529;-60
2023/01/03 11:47:53;;;;;;;;;;;;;;;6.99;100.00;102595.97;5078755;28;19923;-59
2023/01/03 11:50:27;;;;;;;;;;;;;;;6.99;100.00;102597.75;5083684;28;20622;-58
2023/01/03 11:52:58;;;;;;;;;;;;;;;7.00;100.00;102595.00;5087675;28;20525;-59
2023/01/03 11:55:32;;;;;;;;;;;;;;;6.99;100.00;102593.31;5080717;28;19920;-59
2023/01/03 11:58:04;;;;;;;;;;;;;;;7.01;100.00;102580.84;5071301;28;19924;-59
2023/01/03 12:00:33;;;;;;;;;;;;;;;6.99;100.00;102577.47;5081255;28;19927;-58
2023/01/03 12:03:05;;;;;;;;;;;;;;;7.02;100.00;102577.25;5083556;28;20429;-57
2023/01/03 12:05:41;;;;;;;;;;;;;;;7.04;100.00;102577.16;5085211;28;20323;-59
2023/01/03 12:08:25;;;;;;;;;;;;;;;7.02;100.00;102579.91;5078244;28;19923;-58
2023/01/03 12:11:09;;;;;;;;;;;;;;;7.01;100.00;102570.28;5080106;28;20011;-60
2023/01/03 12:13:45;;;;;;;;;;;;;;;7.00;100.00;102568.59;5079730;28;19963;-58
2023/01/03 12:16:18;;;;;;;;;;;;;;;6.99;100.00;102574.81;5079400;28;19982;-58
2023/01/03 12:19:06;;;;;;;;;;;;;;;6.98;100.00;102557.28;5077752;28;19916;-59
2023/01/03 12:21:35;;;;;;;;;;;;;;;7.00;100.00;102551.91;5088611;28;19912;-59
2023/01/03 12:24:20;;;;;;;;;;;;;;;7.03;100.00;102552.53;5077843;28;20386;-60
2023/01/03 12:26:49;;;;;;;;;;;;;;;7.07;100.00;102551.38;5078010;28;19936;-60
2023/01/03 12:29:18;;;;;;;;;;;;;;;7.11;100.00;102549.34;5079868;28;20415;-58
2023/01/03 12:31:50;;;;;;;;;;;;;;;7.17;100.00;102556.00;5075292;28;19916;-61
2023/01/03 12:34:21;;;;;;;;;;;;;;;7.20;100.00;102551.34;5082732;28;19920;-58
2023/01/03 12:37:05;;;;;;;;;;;;;;;7.26;99.99;102550.94;5084646;28;20430;-58
2023/01/03 12:39:35;;;;;;;;;;;;;;;7.28;99.35;102551.69;5087476;28;20029;-60
2023/01/03 12:42:04;;;;;;;;;;;;;;;7.31;98.50;102540.06;5093845;28;20299;-62
2023/01/03 12:44:40;;;;;;;;;;;;;;;7.32;98.10;102547.03;5089396;28;20290;-60
2023/01/03 12:47:11;;;;;;;;;;;;;;;7.34;96.92;102545.97;5080418;28;19916;-58
2023/01/03 12:49:41;;;;;;;;;;;;;;;7.37;96.32;102534.31;5079113;28;19936;-60
2023/01/03 12:52:11;;;;;;;;;;;;;;;7.40;96.54;102544.69;5085024;28;19919;-60
2023/01/03 12:54:39;;;;;;;;;;;;;;;7.39;95.63;102537.69;5078155;28;19916;-59
2023/01/03 12:57:07;;;;;;;;;;;;;;;7.42;95.52;102527.75;5081956;28;19985;-60
2023/01/03 12:59:49;;;;;;;;;;;;;;;7.42;95.52;102535.69;5074750;28;19917;-61
2023/01/03 13:02:23;;;;;;;;;;;;;;;7.44;95.23;102544.34;5082222;28;20387;-61
2023/01/03 13:04:50;;;;;;;;;;;;;;;7.44;94.98;102539.06;5075174;28;19916;-61
2023/01/03 13:07:36;;;;;;;;;;;;;;;7.47;94.88;102543.28;5074444;28;19927;-61
2023/01/03 13:10:05;;;;;;;;;;;;;;;7.50;95.07;102534.28;5085204;28;19917;-60
2023/01/03 13:12:34;;;;;;;;;;;;;;;7.50;94.83;102537.78;5089692;28;20315;-58
2023/01/03 13:15:01;;;;;;;;;;;;;;;7.50;94.68;102540.41;5080099;28;19923;-59
2023/01/03 13:17:27;;;;;;;;;;;;;;;7.50;94.28;102539.56;5077764;28;19916;-60
2023/01/03 13:19:54;;;;;;;;;;;;;;;7.53;94.41;102531.47;5075121;28;20116;-60
2023/01/03 13:22:33;;;;;;;;;;;;;;;7.57;94.25;102523.19;5076189;28;21295;-60
2023/01/03 13:25:16;;;;;;;;;;;;;;;7.60;94.63;102524.78;5073016;28;19917;-61
2023/01/03 13:27:49;;;;;;;;;;;;;;;7.60;94.42;102515.03;5079485;28;19951;-60
2023/01/03 13:30:22;;;;;;;;;;;;;;;7.63;94.57;102521.91;5079542;28;19924;-60
2023/01/03 13:32:52;;;;;;;;;;;;;;;7.66;94.55;102533.09;5083071;28;19917;-58
2023/01/03 13:35:19;;;;;;;;;;;;;;;7.72;94.32;102516.78;5079690;28;20354;-61
2023/01/03 13:37:45;;;;;;;;;;;;;;;7.85;94.41;102511.47;5081521;28;20026;-61
2023/01/03 13:40:23;;;;;;;;;;;;;;;8.04;94.38;102510.94;5084938;28;19916;-60
2023/01/03 13:42:59;;;;;;;;;;;;;;;8.19;93.48;102508.97;5074982;28;19916;-60
2023/01/03 13:45:26;;;;;;;;;;;;;;;8.21;92.12;102510.56;5091045;28;20391;-62
2023/01/03 13:47:53;;;;;;;;;;;;;;;8.35;92.89;102518.31;5082631;28;20007;-61
2023/01/03 13:50:19;;;;;;;;;;;;;;;8.35;92.02;102520.13;5094508;28;19975;-61
2023/01/03 13:53:03;;;;;;;;;;;;;;;8.27;91.68;102520.69;5085707;28;19920;-61
2023/01/03 13:55:34;;;;;;;;;;;;;;;8.16;91.44;102522.44;5088858;28;20003;-59
2023/01/03 13:57:59;;;;;;;;;;;;;;;8.14;90.95;102501.38;5082204;28;19923;-60
2023/01/03 14:00:25;;;;;;;;;;;;;;;8.12;90.87;102502.47;5075259;28;21107;-61